Time;durP1;ratioP1;P1;durP2;ratioP2;P2;SDS_P1;SDS_P2;PMS_P1;PMS_P2;Temp;Humidity;BMP_temperature;BMP_pressure;BME280_temperature;BME280_humidity;BME280_pressure;Samples;Min_cycle;Max_cycle;Signal;HPM_P1;HPM_P2
2022/01/11 00:01:05;;;;;;;409.55;62.90;;;0.70;99.90;;;;;;5016550;28;20065;-80
2022/01/11 00:03:30;;;;;;;119.53;38.83;;;0.70;99.90;;;;;;5031970;28;20045;-81
2022/01/11 00:08:30;;;;;;;200.20;42.63;;;0.70;99.90;;;;;;5018339;28;20104;-81
2022/01/11 00:11:02;;;;;;;130.93;39.03;;;0.60;99.90;;;;;;5014618;28;20040;-80
2022/01/11 00:13:29;;;;;;;144.02;38.50;;;0.60;99.90;;;;;;4998463;28;20045;-80
2022/01/11 00:15:55;;;;;;;123.70;37.03;;;0.60;99.90;;;;;;5017229;28;20040;-80
2022/01/11 00:18:21;;;;;;;78.72;30.95;;;0.60;99.90;;;;;;5032078;28;20045;-80
2022/01/11 00:20:46;;;;;;;83.95;29.95;;;0.50;99.90;;;;;;5015517;28;20364;-81
2022/01/11 00:25:43;;;;;;;92.07;32.17;;;0.40;99.90;;;;;;5015443;28;20084;-80
2022/01/11 00:28:11;;;;;;;64.97;29.95;;;0.40;99.90;;;;;;5017418;28;20044;-81
2022/01/11 00:30:39;;;;;;;88.57;32.15;;;0.40;99.90;;;;;;5031596;28;20052;-80
2022/01/11 00:33:10;;;;;;;124.32;35.90;;;0.40;99.90;;;;;;5028985;28;20091;-80
2022/01/11 00:36:18;;;;;;;92.97;32.50;;;0.40;99.90;;;;;;5017775;28;20041;-81
2022/01/11 00:38:27;;;;;;;88.97;32.70;;;0.30;99.90;;;;;;5008585;28;20204;-81
2022/01/11 00:40:56;;;;;;;99.63;32.70;;;0.40;99.90;;;;;;5016528;28;20260;-80
2022/01/11 00:43:25;;;;;;;83.43;32.10;;;0.40;99.90;;;;;;5014024;28;20053;-80
2022/01/11 00:45:52;;;;;;;73.05;30.88;;;0.40;99.90;;;;;;5027852;28;20069;-81
2022/01/11 00:48:18;;;;;;;76.45;30.98;;;0.30;99.90;;;;;;5028060;28;20041;-81
2022/01/11 00:50:44;;;;;;;67.13;29.92;;;0.30;99.90;;;;;;5013429;28;20041;-81
2022/01/11 00:53:10;;;;;;;92.25;33.33;;;0.20;99.90;;;;;;5032899;28;20029;-81
2022/01/11 00:55:38;;;;;;;77.90;30.50;;;0.30;99.90;;;;;;5033068;28;20083;-81
2022/01/11 00:58:04;;;;;;;64.30;30.25;;;0.30;99.90;;;;;;5025272;28;20048;-81
2022/01/11 01:00:31;;;;;;;64.95;31.27;;;0.20;99.90;;;;;;5021482;28;20068;-81
2022/01/11 01:02:56;;;;;;;61.72;28.15;;;0.20;99.90;;;;;;5020442;28;20044;-81
2022/01/11 01:05:22;;;;;;;52.42;28.40;;;0.30;99.90;;;;;;5035657;28;20120;-81
2022/01/11 01:07:50;;;;;;;72.90;32.88;;;0.30;99.90;;;;;;5014441;28;20144;-81
2022/01/11 01:10:26;;;;;;;74.88;33.72;;;0.30;99.90;;;;;;5031223;28;20064;-81
2022/01/11 01:12:57;;;;;;;88.35;33.50;;;0.30;99.90;;;;;;5022297;28;20484;-81
2022/01/11 01:15:23;;;;;;;81.90;32.90;;;0.30;99.90;;;;;;5022221;28;20465;-80
2022/01/11 01:17:53;;;;;;;90.82;35.72;;;0.30;99.90;;;;;;5022174;28;20037;-81
2022/01/11 01:20:19;;;;;;;118.28;37.78;;;0.30;99.90;;;;;;5023096;28;20040;-81
2022/01/11 01:22:46;;;;;;;70.53;31.35;;;0.30;99.90;;;;;;5020168;28;20036;-81
2022/01/11 01:25:13;;;;;;;81.47;33.53;;;0.30;99.90;;;;;;5031050;28;20528;-81
2022/01/11 01:27:38;;;;;;;114.70;37.60;;;0.40;99.90;;;;;;5020744;28;20029;-81
2022/01/11 01:30:06;;;;;;;74.15;31.92;;;0.40;99.90;;;;;;5036973;28;20503;-81
2022/01/11 01:32:32;;;;;;;93.13;35.10;;;0.30;99.90;;;;;;5021160;28;20053;-81
2022/01/11 01:35:03;;;;;;;98.13;34.10;;;0.40;99.90;;;;;;5004653;28;20321;-81
2022/01/11 01:37:29;;;;;;;87.68;34.45;;;0.30;99.90;;;;;;5018990;28;20113;-81
2022/01/11 01:39:54;;;;;;;121.05;36.70;;;0.40;99.90;;;;;;5017692;28;20045;-81
2022/01/11 01:42:27;;;;;;;104.05;33.80;;;0.40;99.90;;;;;;5036452;28;20111;-81
2022/01/11 01:44:53;;;;;;;115.60;34.78;;;0.30;99.90;;;;;;5021943;28;20105;-81
2022/01/11 01:47:19;;;;;;;136.15;38.15;;;0.40;99.90;;;;;;5023592;28;20475;-81
2022/01/11 01:49:45;;;;;;;84.43;32.05;;;0.40;99.90;;;;;;5018084;28;20044;-81
2022/01/11 01:52:11;;;;;;;111.80;35.80;;;0.30;99.90;;;;;;5019717;28;20091;-81
2022/01/11 01:54:36;;;;;;;107.93;33.03;;;0.40;99.90;;;;;;5032169;28;20041;-81
2022/01/11 01:57:05;;;;;;;104.45;33.55;;;0.30;99.90;;;;;;5028296;28;20052;-80
2022/01/11 01:59:33;;;;;;;108.47;34.75;;;0.30;99.90;;;;;;5001378;28;20045;-80
2022/01/11 02:01:59;;;;;;;136.43;38.05;;;0.40;99.90;;;;;;5031121;28;20572;-80
2022/01/11 02:04:25;;;;;;;113.80;37.25;;;0.40;99.90;;;;;;5030692;28;20136;-81
2022/01/11 02:06:51;;;;;;;132.02;37.15;;;0.40;99.90;;;;;;5002865;28;20041;-81
2022/01/11 02:09:17;;;;;;;127.35;33.95;;;0.40;99.90;;;;;;5020866;28;20080;-81
2022/01/11 02:11:43;;;;;;;143.93;37.30;;;0.40;99.90;;;;;;5015518;28;20095;-81
2022/01/11 02:14:09;;;;;;;97.13;31.52;;;0.40;99.90;;;;;;5006553;28;20055;-81
2022/01/11 02:16:35;;;;;;;119.15;34.15;;;0.50;99.90;;;;;;5036752;28;20038;-80
2022/01/11 02:19:01;;;;;;;145.65;35.30;;;0.40;99.90;;;;;;5002445;28;20073;-80
2022/01/11 02:21:27;;;;;;;169.38;39.38;;;0.40;99.90;;;;;;5019413;28;20284;-80
2022/01/11 02:23:54;;;;;;;177.27;40.28;;;0.50;99.90;;;;;;5029880;28;20195;-80
2022/01/11 02:26:20;;;;;;;169.25;36.92;;;0.40;99.90;;;;;;5002883;28;20600;-81
2022/01/11 02:28:46;;;;;;;152.82;39.08;;;0.40;99.90;;;;;;5019427;28;20044;-81
2022/01/11 02:31:12;;;;;;;123.13;35.22;;;0.50;99.90;;;;;;5032483;28;20370;-80
2022/01/11 02:33:42;;;;;;;166.18;38.45;;;0.50;99.90;;;;;;5038624;28;20331;-80
2022/01/11 02:36:13;;;;;;;218.00;44.17;;;0.50;99.90;;;;;;5032646;28;20291;-81
2022/01/11 02:38:38;;;;;;;118.35;35.08;;;0.50;99.90;;;;;;5003127;28;20648;-80
2022/01/11 02:41:04;;;;;;;183.13;40.47;;;0.40;99.90;;;;;;5003239;28;20045;-80
2022/01/11 02:43:30;;;;;;;189.82;43.47;;;0.50;99.90;;;;;;5041254;28;20183;-80
2022/01/11 02:46:00;;;;;;;159.95;38.78;;;0.50;99.90;;;;;;5016306;28;20044;-81
2022/01/11 02:48:26;;;;;;;135.85;37.72;;;0.50;99.90;;;;;;5022818;28;20044;-81
2022/01/11 02:50:52;;;;;;;107.60;36.00;;;0.50;99.90;;;;;;5031916;28;20146;-80
2022/01/11 02:53:18;;;;;;;151.32;39.42;;;0.60;99.90;;;;;;5036413;28;20081;-80
2022/01/11 02:55:43;;;;;;;179.23;41.60;;;0.50;99.90;;;;;;5020404;28;20045;-81
2022/01/11 02:58:11;;;;;;;123.15;36.15;;;0.60;99.90;;;;;;5021079;28;20033;-80
2022/01/11 03:00:38;;;;;;;168.20;41.67;;;0.50;99.90;;;;;;5036622;28;20381;-81
2022/01/11 03:03:12;;;;;;;132.63;38.15;;;0.60;99.90;;;;;;5035210;28;20037;-81
2022/01/11 03:05:45;;;;;;;169.93;41.65;;;0.60;99.90;;;;;;5001714;28;20515;-81
2022/01/11 03:08:12;;;;;;;135.20;35.97;;;0.60;99.90;;;;;;5019838;28;20033;-80
2022/01/11 03:10:38;;;;;;;211.20;43.42;;;0.70;99.90;;;;;;5017311;28;20077;-81
2022/01/11 03:13:05;;;;;;;137.70;35.65;;;0.50;99.90;;;;;;5035287;28;20512;-80
2022/01/11 03:15:32;;;;;;;109.45;34.50;;;0.60;99.90;;;;;;5019470;28;20040;-80
2022/01/11 03:17:57;;;;;;;114.85;33.15;;;0.50;99.90;;;;;;5018681;28;20095;-81
2022/01/11 03:20:23;;;;;;;185.20;42.88;;;0.50;99.90;;;;;;5020851;28;20165;-81
2022/01/11 03:22:49;;;;;;;129.50;37.08;;;0.60;99.90;;;;;;5021198;28;20049;-81
2022/01/11 03:25:16;;;;;;;164.65;41.38;;;0.50;99.90;;;;;;5008917;28;20044;-80
2022/01/11 03:27:45;;;;;;;169.60;39.30;;;0.60;99.90;;;;;;5019266;28;20045;-81
2022/01/11 03:30:11;;;;;;;124.85;37.13;;;0.50;99.90;;;;;;5015283;28;20048;-80
2022/01/11 03:32:37;;;;;;;129.70;38.50;;;0.70;99.90;;;;;;5019580;28;20071;-80
2022/01/11 03:35:08;;;;;;;135.10;37.30;;;0.60;99.90;;;;;;5039882;28;20473;-80
2022/01/11 03:37:34;;;;;;;138.15;39.25;;;0.60;99.90;;;;;;5018557;28;20535;-81
2022/01/11 03:40:00;;;;;;;184.23;41.88;;;0.70;99.90;;;;;;5020071;28;20060;-80
2022/01/11 03:42:26;;;;;;;196.57;43.50;;;0.70;99.90;;;;;;5018905;28;20490;-80
2022/01/11 03:44:54;;;;;;;201.43;42.28;;;0.70;99.90;;;;;;5004156;28;20028;-80
2022/01/11 03:47:19;;;;;;;189.63;44.47;;;0.70;99.90;;;;;;5028107;28;20123;-81
2022/01/11 03:49:45;;;;;;;248.77;46.97;;;0.80;99.90;;;;;;5003519;28;20267;-81
2022/01/11 03:52:11;;;;;;;227.38;43.92;;;0.70;99.90;;;;;;5002088;28;20071;-80
2022/01/11 03:57:35;;;;;;;152.57;38.30;;;0.70;99.90;;;;;;4988666;28;20048;-81
2022/01/11 04:00:04;;;;;;;151.60;37.53;;;0.70;99.90;;;;;;5030174;28;20435;-80
2022/01/11 04:02:30;;;;;;;117.47;35.92;;;0.80;99.90;;;;;;5021129;28;20052;-81
2022/01/11 04:04:57;;;;;;;158.02;39.13;;;0.80;99.90;;;;;;5027568;28;20555;-81
2022/01/11 04:07:26;;;;;;;161.85;37.53;;;0.80;99.90;;;;;;5017653;28;20369;-81
2022/01/11 04:09:53;;;;;;;132.60;36.67;;;0.80;99.90;;;;;;5017599;28;20605;-81
2022/01/11 04:12:20;;;;;;;144.82;37.95;;;0.70;99.90;;;;;;5001901;28;20052;-81
2022/01/11 04:14:45;;;;;;;124.20;34.10;;;0.80;99.90;;;;;;5036072;28;20048;-80
2022/01/11 04:17:12;;;;;;;134.65;35.88;;;0.80;99.90;;;;;;5031255;28;20084;-80
2022/01/11 04:19:38;;;;;;;126.95;35.95;;;0.70;99.90;;;;;;5029988;28;20115;-81
2022/01/11 04:22:05;;;;;;;147.25;39.55;;;0.70;99.90;;;;;;5016356;28;20041;-81
2022/01/11 04:24:31;;;;;;;147.48;39.55;;;0.70;99.90;;;;;;5031142;28;20441;-80
2022/01/11 04:26:56;;;;;;;95.07;34.55;;;0.70;99.90;;;;;;5015716;28;20516;-81
2022/01/11 04:29:22;;;;;;;111.38;36.05;;;0.70;99.90;;;;;;5016193;28;20468;-81
2022/01/11 04:31:48;;;;;;;123.43;36.63;;;0.80;99.90;;;;;;5015513;28;20080;-81
2022/01/11 04:34:13;;;;;;;135.82;39.67;;;0.80;99.90;;;;;;5016912;28;20045;-81
2022/01/11 04:36:40;;;;;;;140.02;41.00;;;0.90;99.90;;;;;;5029781;28;20037;-80
2022/01/11 04:39:08;;;;;;;133.30;38.10;;;0.80;99.90;;;;;;5030103;28;20079;-80
2022/01/11 04:41:37;;;;;;;100.38;35.90;;;0.80;99.90;;;;;;5032967;28;20049;-81
2022/01/11 04:44:04;;;;;;;124.50;40.63;;;0.70;99.90;;;;;;5032004;28;20269;-81
2022/01/11 04:46:30;;;;;;;97.95;35.92;;;0.70;99.90;;;;;;5015615;28;20083;-80
2022/01/11 04:48:55;;;;;;;89.43;34.78;;;0.70;99.90;;;;;;5027232;28;20060;-81
2022/01/11 04:51:24;;;;;;;84.68;32.42;;;0.70;99.90;;;;;;5027962;28;20087;-81
2022/01/11 04:53:50;;;;;;;101.38;37.42;;;0.70;99.90;;;;;;5016179;28;20549;-81
2022/01/11 04:56:16;;;;;;;116.32;38.67;;;0.80;99.90;;;;;;5017348;28;20492;-81
2022/01/11 04:58:43;;;;;;;90.03;34.90;;;0.80;99.90;;;;;;5031271;28;20340;-81
2022/01/11 05:01:09;;;;;;;128.77;38.92;;;0.70;99.90;;;;;;5017997;28;20041;-81
2022/01/11 05:03:35;;;;;;;108.65;37.28;;;0.80;99.90;;;;;;5019281;28;20709;-81
2022/01/11 05:06:01;;;;;;;102.38;36.28;;;0.70;99.90;;;;;;5032254;28;20513;-81
2022/01/11 05:08:27;;;;;;;96.03;36.25;;;0.70;99.90;;;;;;5017056;28;20275;-81
2022/01/11 05:10:53;;;;;;;97.85;34.47;;;0.70;99.90;;;;;;5025308;28;20310;-81
2022/01/11 05:13:21;;;;;;;99.10;35.08;;;0.70;99.90;;;;;;5018688;28;20158;-81
2022/01/11 05:15:47;;;;;;;95.93;34.65;;;0.60;99.90;;;;;;5026288;28;20174;-81
2022/01/11 05:18:14;;;;;;;95.78;33.88;;;0.60;99.90;;;;;;5001029;28;20042;-81
2022/01/11 05:20:40;;;;;;;100.70;35.08;;;0.70;99.90;;;;;;5016336;28;20044;-81
2022/01/11 05:23:07;;;;;;;92.32;34.35;;;0.60;99.90;;;;;;5037102;28;20041;-81
2022/01/11 05:25:32;;;;;;;89.07;34.60;;;0.60;99.90;;;;;;5028311;28;20041;-81
2022/01/11 05:27:59;;;;;;;86.55;33.10;;;0.70;99.90;;;;;;5019336;28;20503;-81
2022/01/11 05:30:26;;;;;;;87.20;35.15;;;0.60;99.90;;;;;;5034291;28;20381;-81
2022/01/11 05:32:52;;;;;;;84.65;35.25;;;0.60;99.90;;;;;;4999221;28;20033;-81
2022/01/11 05:35:20;;;;;;;92.07;35.13;;;0.70;99.90;;;;;;5019092;28;20040;-81
2022/01/11 05:37:46;;;;;;;94.68;35.10;;;0.70;99.90;;;;;;5015774;28;20134;-81
2022/01/11 05:40:13;;;;;;;93.28;34.00;;;0.80;99.90;;;;;;5040204;28;20140;-81
2022/01/11 05:42:39;;;;;;;94.60;35.53;;;0.70;99.90;;;;;;5021518;28;20044;-81
2022/01/11 05:45:07;;;;;;;76.85;33.95;;;0.70;99.90;;;;;;5017456;28;20099;-81
2022/01/11 05:47:33;;;;;;;98.57;37.08;;;0.80;99.90;;;;;;5014297;28;20123;-81
2022/01/11 05:50:01;;;;;;;79.38;32.28;;;0.70;99.90;;;;;;5032472;28;20579;-81
2022/01/11 05:52:27;;;;;;;72.43;31.58;;;0.70;99.90;;;;;;5041564;28;20045;-81
2022/01/11 05:54:53;;;;;;;79.60;31.38;;;0.70;99.90;;;;;;5019933;28;20036;-81
2022/01/11 05:57:19;;;;;;;81.18;34.10;;;0.70;99.90;;;;;;5019152;28;20117;-81
2022/01/11 05:59:45;;;;;;;82.07;33.03;;;0.70;99.90;;;;;;5035066;28;20480;-81
2022/01/11 06:02:10;;;;;;;83.93;33.25;;;0.60;99.90;;;;;;5019963;28;20052;-81
2022/01/11 06:04:36;;;;;;;72.32;32.60;;;0.70;99.90;;;;;;5020562;28;20211;-81
2022/01/11 06:07:02;;;;;;;80.43;32.92;;;0.70;99.90;;;;;;5018237;28;20065;-80
2022/01/11 06:09:28;;;;;;;69.05;31.80;;;0.60;99.90;;;;;;5020533;28;20045;-81
2022/01/11 06:11:55;;;;;;;70.68;31.60;;;0.60;99.90;;;;;;5029174;28;20362;-81
2022/01/11 06:14:22;;;;;;;73.85;31.40;;;0.60;99.90;;;;;;5037218;28;20504;-81
2022/01/11 06:16:49;;;;;;;73.60;30.08;;;0.50;99.90;;;;;;5017687;28;20048;-80
2022/01/11 06:19:15;;;;;;;68.97;29.67;;;0.50;99.90;;;;;;5038271;28;20568;-81
2022/01/11 06:21:41;;;;;;;75.43;31.30;;;0.60;99.90;;;;;;5037581;28;20044;-81
2022/01/11 06:24:07;;;;;;;75.50;31.40;;;0.50;99.90;;;;;;5009566;28;20128;-81
2022/01/11 06:26:33;;;;;;;71.60;30.88;;;0.50;99.90;;;;;;5035466;28;20038;-80
2022/01/11 06:29:01;;;;;;;73.68;32.13;;;0.50;99.90;;;;;;5019549;28;20443;-81
2022/01/11 06:31:27;;;;;;;73.97;32.83;;;0.60;99.90;;;;;;5019502;28;20049;-81
2022/01/11 06:33:53;;;;;;;79.00;30.45;;;0.60;99.90;;;;;;5019485;28;20045;-81
2022/01/11 06:36:20;;;;;;;73.28;32.85;;;0.60;99.90;;;;;;5035540;28;20162;-81
2022/01/11 06:38:46;;;;;;;78.10;32.92;;;0.60;99.90;;;;;;5019963;28;20045;-81
2022/01/11 06:41:12;;;;;;;74.10;31.98;;;0.60;99.90;;;;;;5034366;28;20490;-81
2022/01/11 06:43:39;;;;;;;81.38;32.38;;;0.50;99.90;;;;;;5024200;28;20145;-81
2022/01/11 06:46:05;;;;;;;82.18;32.05;;;0.50;99.90;;;;;;5019818;28;20032;-81
2022/01/11 06:48:34;;;;;;;84.28;34.25;;;0.50;99.90;;;;;;5019122;28;20140;-81
2022/01/11 06:50:59;;;;;;;80.60;32.63;;;0.50;99.90;;;;;;5029069;28;20041;-81
2022/01/11 06:53:25;;;;;;;90.10;33.10;;;0.50;99.90;;;;;;5036430;28;20410;-81
2022/01/11 06:55:53;;;;;;;78.43;33.30;;;0.50;99.90;;;;;;5020710;28;20498;-81
2022/01/11 06:58:20;;;;;;;77.07;30.85;;;0.60;99.90;;;;;;5019141;28;20045;-81
2022/01/11 07:00:45;;;;;;;72.55;32.53;;;0.50;99.90;;;;;;5018071;28;20044;-81
2022/01/11 07:03:15;;;;;;;82.00;33.20;;;0.60;99.90;;;;;;5017543;28;20434;-81
2022/01/11 07:05:51;;;;;;;87.07;33.33;;;0.50;99.90;;;;;;5018126;28;20048;-81
2022/01/11 07:08:17;;;;;;;78.38;32.22;;;0.60;99.90;;;;;;5017434;28;20044;-81
2022/01/11 07:10:43;;;;;;;82.38;33.42;;;0.60;99.90;;;;;;5017608;28;20037;-81
2022/01/11 07:13:09;;;;;;;86.25;33.65;;;0.60;99.90;;;;;;5036955;28;20151;-81
2022/01/11 07:15:34;;;;;;;82.38;32.55;;;0.60;99.90;;;;;;5020430;28;20452;-81
2022/01/11 07:18:06;;;;;;;82.43;33.53;;;0.60;99.90;;;;;;5037128;28;20072;-81
2022/01/11 07:20:33;;;;;;;71.05;32.20;;;0.60;99.90;;;;;;5003761;28;20516;-81
2022/01/11 07:22:59;;;;;;;75.82;31.40;;;0.60;99.90;;;;;;5008343;28;20075;-81
2022/01/11 07:25:26;;;;;;;78.60;34.47;;;0.60;99.90;;;;;;5016604;28;20052;-80
2022/01/11 07:27:51;;;;;;;90.95;35.00;;;0.60;99.90;;;;;;5017654;28;20484;-81
2022/01/11 07:30:17;;;;;;;87.05;35.97;;;0.60;99.90;;;;;;4993340;28;20077;-81
2022/01/11 07:32:43;;;;;;;93.28;34.58;;;0.70;99.90;;;;;;5014483;28;20029;-81
2022/01/11 07:35:09;;;;;;;89.47;34.42;;;0.60;99.90;;;;;;5016058;28;20053;-81
2022/01/11 07:37:37;;;;;;;73.05;32.42;;;0.70;99.90;;;;;;5033022;28;20129;-81
2022/01/11 07:40:03;;;;;;;86.55;33.90;;;0.70;99.90;;;;;;4995339;28;20560;-81
2022/01/11 07:42:29;;;;;;;81.88;33.13;;;0.70;99.90;;;;;;5012209;28;20451;-81
2022/01/11 07:44:55;;;;;;;80.78;33.65;;;0.70;99.90;;;;;;4997251;28;20049;-80
2022/01/11 07:47:21;;;;;;;84.75;32.90;;;0.70;99.90;;;;;;5028360;28;20512;-80
2022/01/11 07:49:47;;;;;;;74.75;31.08;;;0.80;99.90;;;;;;5032918;28;20041;-81
2022/01/11 07:52:13;;;;;;;82.05;33.50;;;0.90;99.90;;;;;;5030646;28;20284;-80
2022/01/11 07:54:40;;;;;;;84.78;33.65;;;0.80;99.90;;;;;;5011434;28;20386;-81
2022/01/11 07:57:06;;;;;;;92.05;35.03;;;0.90;99.90;;;;;;5001713;28;20419;-80
2022/01/11 07:59:32;;;;;;;80.80;32.58;;;0.90;99.90;;;;;;4997436;28;20040;-81
2022/01/11 08:01:58;;;;;;;81.80;31.23;;;0.80;99.90;;;;;;5033661;28;20045;-81
2022/01/11 08:04:23;;;;;;;88.38;33.45;;;1.00;99.90;;;;;;5030122;28;20048;-81
2022/01/11 08:06:49;;;;;;;78.35;31.83;;;0.90;99.90;;;;;;5030101;28;20031;-81
2022/01/11 08:09:15;;;;;;;78.47;31.30;;;1.00;99.90;;;;;;4997225;28;20037;-80
2022/01/11 08:11:41;;;;;;;81.30;32.95;;;1.00;99.90;;;;;;5033130;28;20274;-80
2022/01/11 08:14:07;;;;;;;87.90;32.55;;;0.90;99.90;;;;;;5016084;28;20246;-81
2022/01/11 08:16:33;;;;;;;96.03;35.45;;;0.90;99.90;;;;;;5031398;28;20037;-81
2022/01/11 08:18:58;;;;;;;81.38;33.03;;;1.10;99.90;;;;;;4995525;28;20424;-81
2022/01/11 08:21:24;;;;;;;82.70;33.22;;;1.00;99.90;;;;;;5012424;28;20377;-81
2022/01/11 08:23:50;;;;;;;84.13;31.83;;;1.00;99.90;;;;;;5030548;28;20392;-81
2022/01/11 08:26:16;;;;;;;90.95;33.47;;;1.10;99.90;;;;;;5006317;28;20037;-81
2022/01/11 08:28:43;;;;;;;86.43;32.50;;;1.10;99.90;;;;;;5032756;28;20044;-81
2022/01/11 08:31:09;;;;;;;73.60;32.03;;;1.20;99.90;;;;;;5027684;28;20516;-81
2022/01/11 08:33:35;;;;;;;84.25;33.40;;;1.20;99.90;;;;;;5016219;28;20041;-81
2022/01/11 08:36:00;;;;;;;83.63;33.35;;;1.20;99.90;;;;;;5030446;28;20249;-81
2022/01/11 08:38:26;;;;;;;76.97;32.78;;;1.20;99.90;;;;;;5003970;28;20954;-80
2022/01/11 08:40:52;;;;;;;70.78;31.48;;;1.20;99.90;;;;;;5020151;28;20082;-81
2022/01/11 08:43:18;;;;;;;65.07;28.58;;;1.20;99.90;;;;;;5011239;28;20037;-81
2022/01/11 08:45:43;;;;;;;65.65;28.73;;;1.20;99.90;;;;;;5014068;28;20045;-81
2022/01/11 08:48:09;;;;;;;68.95;31.05;;;1.20;99.90;;;;;;5030682;28;20037;-81
2022/01/11 08:50:35;;;;;;;69.22;29.83;;;1.20;99.90;;;;;;5014730;28;20037;-81
2022/01/11 08:53:01;;;;;;;74.93;30.13;;;1.30;99.90;;;;;;4999773;28;20125;-81
2022/01/11 08:55:29;;;;;;;59.55;25.60;;;1.20;99.90;;;;;;5030583;28;20049;-81
2022/01/11 08:57:55;;;;;;;62.30;27.20;;;1.30;99.90;;;;;;5031599;28;20037;-81
2022/01/11 09:00:22;;;;;;;55.53;25.23;;;1.30;99.90;;;;;;5032877;28;20157;-81
2022/01/11 09:02:53;;;;;;;62.70;26.92;;;1.30;99.90;;;;;;5016808;28;20040;-81
2022/01/11 09:05:20;;;;;;;57.80;25.13;;;1.20;99.90;;;;;;5000493;28;20092;-81
2022/01/11 09:07:46;;;;;;;52.85;22.65;;;1.30;99.90;;;;;;5015290;28;20376;-80
2022/01/11 09:10:12;;;;;;;47.05;23.75;;;1.20;99.90;;;;;;5010213;28;20041;-80
2022/01/11 09:12:39;;;;;;;44.92;23.33;;;1.30;99.90;;;;;;5003884;28;20041;-81
2022/01/11 09:15:07;;;;;;;49.15;23.25;;;1.30;99.90;;;;;;5020501;28;20041;-81
2022/01/11 09:17:34;;;;;;;47.50;21.90;;;1.20;99.90;;;;;;5015738;28;20040;-81
2022/01/11 09:20:00;;;;;;;48.65;23.35;;;1.20;99.90;;;;;;5015380;28;20045;-81
2022/01/11 09:22:26;;;;;;;46.70;22.17;;;1.20;99.90;;;;;;5017401;28;20087;-81
2022/01/11 09:24:53;;;;;;;51.38;23.77;;;1.20;99.90;;;;;;5012841;28;20049;-81
2022/01/11 09:27:19;;;;;;;47.95;22.52;;;1.30;99.90;;;;;;5002618;28;20045;-80
2022/01/11 09:29:45;;;;;;;42.83;21.13;;;1.30;99.90;;;;;;5018229;28;20049;-80
2022/01/11 09:32:12;;;;;;;43.28;21.52;;;1.30;99.90;;;;;;5003712;28;20060;-81
2022/01/11 09:34:39;;;;;;;41.97;20.15;;;1.20;99.90;;;;;;5037923;28;20061;-80
2022/01/11 09:37:06;;;;;;;39.85;21.00;;;1.20;99.90;;;;;;5019011;28;20044;-81
2022/01/11 09:39:32;;;;;;;38.88;20.02;;;1.30;99.90;;;;;;5032591;28;20562;-81
2022/01/11 09:41:59;;;;;;;40.58;20.08;;;1.30;99.90;;;;;;5031115;28;20041;-81
2022/01/11 09:44:27;;;;;;;36.80;20.13;;;1.30;99.90;;;;;;4999960;28;20073;-80
2022/01/11 09:46:53;;;;;;;37.42;19.48;;;1.30;99.90;;;;;;5019112;28;20046;-81
2022/01/11 09:49:19;;;;;;;43.30;20.02;;;1.30;99.90;;;;;;5037076;28;20182;-81
2022/01/11 09:51:45;;;;;;;37.55;20.48;;;1.30;99.90;;;;;;5012622;28;20135;-81
2022/01/11 09:54:12;;;;;;;35.53;19.90;;;1.40;99.90;;;;;;5034051;28;20334;-81
2022/01/11 09:56:38;;;;;;;35.88;19.20;;;1.30;99.90;;;;;;5015387;28;20460;-80
2022/01/11 09:59:06;;;;;;;38.50;19.73;;;1.40;99.90;;;;;;5036233;28;20528;-81
2022/01/11 10:01:32;;;;;;;32.47;19.45;;;1.40;99.90;;;;;;5014499;28;20496;-81
2022/01/11 10:04:13;;;;;;;34.05;19.70;;;1.30;99.90;;;;;;5025617;28;20032;-81
2022/01/11 10:06:42;;;;;;;38.70;19.08;;;1.40;99.90;;;;;;5036545;28;20061;-80
2022/01/11 10:09:09;;;;;;;36.15;18.92;;;1.40;99.90;;;;;;5036661;28;20067;-81
2022/01/11 10:11:39;;;;;;;36.67;19.20;;;1.50;99.90;;;;;;5032900;28;20060;-80
2022/01/11 10:14:17;;;;;;;35.92;19.05;;;1.50;99.90;;;;;;5037615;28;20033;-81
2022/01/11 10:16:43;;;;;;;34.10;18.95;;;1.50;99.90;;;;;;5019665;28;20123;-80
2022/01/11 10:19:20;;;;;;;34.92;18.65;;;1.60;99.90;;;;;;5019140;28;20037;-81
2022/01/11 10:21:47;;;;;;;30.30;16.80;;;1.50;99.90;;;;;;5038925;28;20480;-80
2022/01/11 10:24:38;;;;;;;32.17;19.08;;;1.50;99.90;;;;;;5018429;28;20041;-80
2022/01/11 10:27:16;;;;;;;33.97;19.25;;;1.60;99.90;;;;;;5018820;28;20107;-81
2022/01/11 10:29:45;;;;;;;32.72;17.88;;;1.60;99.90;;;;;;5040421;28;20055;-81
2022/01/11 10:32:24;;;;;;;36.92;19.63;;;1.50;99.90;;;;;;5038857;28;20124;-80
2022/01/11 10:34:57;;;;;;;36.17;18.05;;;1.60;99.90;;;;;;5000750;28;20137;-81
2022/01/11 10:37:41;;;;;;;37.90;19.85;;;1.60;99.90;;;;;;5036315;28;20045;-80
2022/01/11 10:40:15;;;;;;;36.47;19.53;;;1.60;99.90;;;;;;5015765;28;20075;-80
2022/01/11 10:43:09;;;;;;;34.42;19.10;;;1.60;99.90;;;;;;5036656;28;20442;-80
2022/01/11 10:46:00;;;;;;;33.97;19.02;;;1.50;99.90;;;;;;5030837;28;20055;-80
2022/01/11 10:48:27;;;;;;;37.75;18.60;;;1.60;99.90;;;;;;5026602;28;20132;-80
2022/01/11 10:50:58;;;;;;;33.28;18.00;;;1.70;99.90;;;;;;5020512;28;20041;-80
2022/01/11 10:53:28;;;;;;;36.92;19.38;;;1.70;99.90;;;;;;5016835;28;20118;-80
2022/01/11 10:55:59;;;;;;;36.42;19.42;;;1.70;99.90;;;;;;5021609;28;20120;-80
2022/01/11 10:58:32;;;;;;;31.30;18.40;;;1.70;99.90;;;;;;5031545;28;20044;-81
2022/01/11 11:00:58;;;;;;;30.98;18.27;;;1.70;99.90;;;;;;5029393;28;20120;-80
2022/01/11 11:03:27;;;;;;;33.47;17.85;;;1.80;99.90;;;;;;5031798;28;20140;-80
2022/01/11 11:05:55;;;;;;;31.38;16.75;;;1.90;99.90;;;;;;5004296;28;20068;-80
2022/01/11 11:08:23;;;;;;;37.53;18.48;;;1.80;99.90;;;;;;5011622;28;20041;-80
2022/01/11 11:10:55;;;;;;;35.17;19.08;;;1.90;99.90;;;;;;5015858;28;20060;-80
2022/01/11 11:13:33;;;;;;;32.70;17.95;;;1.90;99.90;;;;;;5034119;28;20048;-79
2022/01/11 11:16:10;;;;;;;32.70;18.77;;;1.90;99.90;;;;;;5035456;28;20163;-80
2022/01/11 11:18:47;;;;;;;34.17;18.38;;;2.20;99.90;;;;;;5031462;28;20063;-80
2022/01/11 11:21:22;;;;;;;30.40;17.77;;;2.10;99.90;;;;;;4992506;28;20492;-80
2022/01/11 11:23:50;;;;;;;29.98;18.20;;;2.10;99.90;;;;;;5035440;28;20049;-80
2022/01/11 11:26:17;;;;;;;28.58;16.45;;;2.20;99.90;;;;;;5017531;28;20472;-80
2022/01/11 11:28:43;;;;;;;31.20;18.15;;;2.20;99.90;;;;;;5015255;28;20031;-80
2022/01/11 11:31:09;;;;;;;31.95;18.90;;;2.40;99.90;;;;;;5033474;28;20037;-79
2022/01/11 11:33:39;;;;;;;30.35;17.48;;;2.40;99.90;;;;;;5014584;28;20326;-80
2022/01/11 11:36:09;;;;;;;30.33;17.48;;;2.40;99.90;;;;;;5034636;28;20103;-80
2022/01/11 11:38:43;;;;;;;29.17;17.02;;;2.50;99.90;;;;;;5031235;28;20033;-80
2022/01/11 11:41:10;;;;;;;31.00;17.20;;;2.60;99.90;;;;;;5012009;28;20064;-80
2022/01/11 11:43:36;;;;;;;27.70;16.92;;;2.70;99.90;;;;;;5006474;28;20280;-80
2022/01/11 11:46:02;;;;;;;28.67;17.35;;;2.70;99.90;;;;;;5033633;28;20081;-79
2022/01/11 11:48:28;;;;;;;27.73;15.98;;;2.90;99.90;;;;;;5034281;28;20436;-79
2022/01/11 11:50:57;;;;;;;26.60;16.88;;;2.80;99.90;;;;;;5001885;28;20045;-80
2022/01/11 11:53:34;;;;;;;25.80;15.25;;;3.00;99.90;;;;;;5031319;28;20473;-80
2022/01/11 11:56:25;;;;;;;25.38;16.33;;;3.00;99.90;;;;;;5017387;28;20056;-80
2022/01/11 11:58:53;;;;;;;25.85;15.88;;;3.10;99.90;;;;;;5014269;28;20481;-79
2022/01/11 12:01:45;;;;;;;24.35;15.18;;;3.00;99.90;;;;;;5004120;28;20048;-80
2022/01/11 12:04:15;;;;;;;22.50;14.98;;;3.10;99.90;;;;;;5001694;28;20079;-80
2022/01/11 12:06:42;;;;;;;26.77;15.93;;;3.10;99.90;;;;;;5039660;28;20087;-79
2022/01/11 12:09:14;;;;;;;24.45;14.43;;;3.20;99.90;;;;;;5018024;28;20072;-79
2022/01/11 12:11:46;;;;;;;25.77;15.48;;;3.10;99.90;;;;;;5033374;28;20048;-80
2022/01/11 12:14:35;;;;;;;24.75;14.63;;;3.30;99.90;;;;;;5012451;28;20080;-80
2022/01/11 12:17:17;;;;;;;23.30;14.40;;;3.20;99.90;;;;;;5033108;28;20041;-80
2022/01/11 12:19:49;;;;;;;26.60;15.57;;;3.20;99.90;;;;;;5033522;28;20457;-80
2022/01/11 12:22:28;;;;;;;26.13;15.65;;;3.20;99.90;;;;;;5034692;28;20230;-80
2022/01/11 12:24:56;;;;;;;27.80;14.88;;;3.30;99.90;;;;;;5031827;28;20045;-80
2022/01/11 12:27:24;;;;;;;24.77;15.60;;;3.30;99.90;;;;;;5004891;28;20793;-79
2022/01/11 12:29:57;;;;;;;24.85;15.50;;;3.40;99.90;;;;;;5034789;28;20041;-79
2022/01/11 12:32:25;;;;;;;26.63;16.05;;;3.40;99.90;;;;;;5030088;28;20045;-80
2022/01/11 12:34:59;;;;;;;28.17;16.10;;;3.40;99.90;;;;;;5036170;28;20054;-80
2022/01/11 12:37:40;;;;;;;22.48;14.18;;;3.40;99.90;;;;;;5033219;28;20087;-79
2022/01/11 12:40:14;;;;;;;25.33;15.18;;;3.30;99.90;;;;;;5011119;28;20094;-79
2022/01/11 12:43:01;;;;;;;24.17;15.10;;;3.30;99.90;;;;;;5018781;28;20067;-78
2022/01/11 12:45:57;;;;;;;25.20;15.73;;;3.30;99.90;;;;;;5033143;28;20508;-80